Circle Hot Springs Airport


Codes: CHP/CHP
Name: Circle Hot Springs Airport
City: Circle Hot Springs
Country: United States
Elevation: 956 ft.
Wikipedia:

Photos at Circle Hot Springs Airport


   Photos courtesy of SpottingLog. You can add your own sightings and photos by signing up for a free trial today.



No photos found.

Weather at Circle Hot Springs Airport


Time (UTC)DescriptionTempratureWindCloud coverageVisibilityPressureHumidity
21-Jun-2024 12:00Overcast Clouds11°C4 mph, NW95%10000m1012hPa81%
21-Jun-2024 15:00Overcast Clouds12°C4 mph, N91%10000m1012hPa78%
21-Jun-2024 18:00Overcast Clouds15°C7 mph, N88%10000m1012hPa61%
21-Jun-2024 21:00Scattered Clouds20°C9 mph, N45%10000m1011hPa43%
22-Jun-2024 00:00Broken Clouds21°C9 mph, NE66%10000m1010hPa37%
22-Jun-2024 03:00Overcast Clouds21°C9 mph, NE86%10000m1009hPa36%
22-Jun-2024 06:00Broken Clouds18°C7 mph, NE54%10000m1010hPa49%
22-Jun-2024 09:00Few Clouds11°C2 mph, N12%10000m1012hPa73%
22-Jun-2024 12:00Clear Sky10°C4 mph, NW9%10000m1012hPa76%
22-Jun-2024 15:00Clear Sky13°C7 mph, N3%10000m1012hPa52%
22-Jun-2024 18:00Clear Sky17°C9 mph, NE2%10000m1011hPa38%
22-Jun-2024 21:00Clear Sky20°C11 mph, NE0%10000m1010hPa29%
23-Jun-2024 00:00Clear Sky22°C9 mph, NE0%10000m1009hPa26%
23-Jun-2024 03:00Clear Sky22°C9 mph, NE5%10000m1009hPa28%
23-Jun-2024 06:00Clear Sky18°C4 mph, NE6%10000m1009hPa42%
23-Jun-2024 09:00Clear Sky13°C2 mph, W5%10000m1010hPa56%
23-Jun-2024 12:00Clear Sky11°C2 mph, SW7%10000m1010hPa62%
23-Jun-2024 15:00Clear Sky16°C2 mph, E6%10000m1009hPa49%
23-Jun-2024 18:00Clear Sky21°C4 mph, NE8%10000m1008hPa32%
23-Jun-2024 21:00Few Clouds23°C4 mph, NE14%10000m1007hPa26%
24-Jun-2024 00:00Scattered Clouds24°C4 mph, NE38%10000m1006hPa23%
24-Jun-2024 03:00Overcast Clouds24°C4 mph, N86%10000m1005hPa24%
24-Jun-2024 06:00Broken Clouds19°C2 mph, NE80%10000m1005hPa42%
24-Jun-2024 09:00Broken Clouds15°C2 mph, SW81%10000m1006hPa49%
24-Jun-2024 12:00Overcast Clouds14°C4 mph, SW89%10000m1006hPa49%
24-Jun-2024 15:00Overcast Clouds18°C2 mph, SW97%10000m1006hPa46%
24-Jun-2024 18:00Overcast Clouds23°C4 mph, SW97%10000m1006hPa32%
24-Jun-2024 21:00Overcast Clouds25°C7 mph, W99%10000m1006hPa29%
25-Jun-2024 00:00Overcast Clouds25°C9 mph, W98%10000m1005hPa30%
25-Jun-2024 03:00Light Rain21°C7 mph, W100%10000m1007hPa49%
25-Jun-2024 06:00Light Rain16°C2 mph, SW97%10000m1010hPa85%
25-Jun-2024 09:00Light Rain13°C4 mph, SW97%10000m1012hPa88%
25-Jun-2024 12:00Overcast Clouds12°C4 mph, W95%10000m1013hPa89%
25-Jun-2024 15:00Overcast Clouds15°C2 mph, SW100%10000m1014hPa80%
25-Jun-2024 18:00Overcast Clouds19°C2 mph, SW100%10000m1014hPa50%
25-Jun-2024 21:00Overcast Clouds20°C2 mph, SE100%10000m1013hPa44%
26-Jun-2024 00:00Overcast Clouds20°C7 mph, N99%10000m1013hPa45%
26-Jun-2024 03:00Overcast Clouds20°C2 mph, E98%10000m1013hPa46%
26-Jun-2024 06:00Overcast Clouds18°C2 mph, NE99%10000m1012hPa58%
26-Jun-2024 09:00Overcast Clouds15°C2 mph, W87%10000m1012hPa69%